Airfield :
LOGIN :

Register | Disclaimer

   EN    FR    IT 

 










Legend :    VFR   Marginal VFR   IFR   Intensive IFR   Very Intensive IFR
Visi :
Ceiling :
>= 8 km
>= 3000ft
5 to 8 km
1000 to 3000 ft
1500m to 5 km
500 to 1000 ft
800 to 1500m
200 to 500 ft
< 800m
< 200 ft
Symbols :   Thunderstorms  Fog  Heavy snow  Heavy precipitations  Wind > 20 kt
SIGMETs :     Misc.  Thunderstorms  Icing  Turbulence  Mountain Waves  Volcanic Ashes







- Airport Elevation : 242 ft
- IATA code : DUB


EIDW - Dublin

CURRENT METAR :
  • 210130Z 19011KT 9999 SCT012 BKN018 BKN060 12/10 Q1013 NOSIG

EXPIRED METARs :
  • 210100Z 20011KT 9999 SCT012 BKN018 BKN060 12/09 Q1013 NOSIG
  • 210030Z 20010KT 170V240 9999 SCT012 BKN018 BKN040 12/09 Q1013 NOSIG
  • 210000Z 20013KT 170V230 9999 SCT012 BKN018 BKN040 12/09 Q1013 NOSIG
  • 202330Z 20010KT 160V220 9999 SCT012 BKN018 BKN040 12/09 Q1012 NOSIG
  • 202300Z 21008KT 170V240 9999 SCT012 BKN018 BKN040 12/09 Q1012 NOSIG

TAF TAF EIDW
Valid from the 21 at 00:00 until the 22 at 00:00 UTC


202300Z 2100/2124 20015KT 9999 SCT012 BKN018
TEMPO 2100/2104 -DZ BKN012
BECMG 2115/2118 16015KT
TEMPO 2122/2124 17016G26KT
No reported NOTAMs for that airfield.



MET'MAP, your aeronautical weather chart ! - Copyright ORBIFLY December 2007 - Disclaimer

ORBIFLY MET'MAP TEAM :

Programming & Development : Alexandra Zaïnal
Concept & Development : Baudouin d'Aumeries
Co-Development & Prog : Marc-Olivier Méhu
Technical & hardware support : Manuel Goepfert

Contact : metmap@orbifly.com




SOURCES & CREDITS :

   NOAA